createdAt,value
2019-03-06T00:01:33.254Z,8.10
2019-03-06T00:04:02.401Z,8.10
2019-03-06T00:06:31.555Z,8.10
2019-03-06T00:09:00.935Z,8.10
2019-03-06T00:11:30.068Z,8.10
2019-03-06T00:13:59.106Z,8.10
2019-03-06T00:16:28.298Z,8.10
2019-03-06T00:18:57.551Z,8.10
2019-03-06T00:21:26.860Z,8.10
2019-03-06T00:23:56.000Z,8.10
2019-03-06T00:26:25.323Z,8.20
2019-03-06T00:28:54.797Z,8.20
2019-03-06T00:31:24.023Z,8.20
2019-03-06T00:33:53.366Z,8.20
2019-03-06T00:36:24.054Z,8.20
2019-03-06T00:38:53.301Z,8.20
2019-03-06T00:41:28.165Z,8.20
2019-03-06T00:43:57.323Z,8.20
2019-03-06T00:46:26.438Z,8.20
2019-03-06T00:48:55.562Z,8.20
2019-03-06T00:51:24.668Z,8.20
2019-03-06T00:53:53.858Z,8.10
2019-03-06T00:56:23.294Z,8.10
2019-03-06T00:58:52.468Z,8.10
2019-03-06T01:01:24.152Z,8.10
2019-03-06T01:03:53.464Z,8.10
2019-03-06T01:06:22.632Z,8.10
2019-03-06T01:08:51.814Z,8.10
2019-03-06T01:11:20.908Z,8.10
2019-03-06T01:13:50.060Z,8.00
2019-03-06T01:16:19.153Z,8.10
2019-03-06T01:18:48.297Z,8.00
2019-03-06T01:21:17.616Z,8.00
2019-03-06T01:23:49.143Z,8.00
2019-03-06T01:26:19.999Z,8.00
2019-03-06T01:28:49.668Z,7.90
2019-03-06T01:31:18.839Z,7.90
2019-03-06T01:34:05.891Z,7.80
2019-03-06T01:36:48.491Z,7.80
2019-03-06T01:39:35.489Z,7.80
2019-03-06T01:42:21.578Z,7.70
2019-03-06T01:44:59.935Z,7.70
2019-03-06T01:47:30.263Z,7.70
2019-03-06T01:49:59.402Z,7.70
2019-03-06T01:52:28.672Z,7.70
2019-03-06T01:54:58.228Z,7.70
2019-03-06T01:57:27.352Z,7.70
2019-03-06T01:59:56.501Z,7.80
2019-03-06T02:02:26.073Z,7.70
2019-03-06T02:04:55.920Z,7.80
2019-03-06T02:07:26.709Z,7.90
2019-03-06T02:09:55.825Z,7.90
2019-03-06T02:12:28.651Z,7.90
2019-03-06T02:14:59.006Z,7.90
2019-03-06T02:17:28.620Z,7.90
2019-03-06T02:19:57.695Z,7.90
2019-03-06T02:22:26.852Z,7.90
2019-03-06T02:24:55.971Z,8.00
2019-03-06T02:27:25.091Z,8.00
2019-03-06T02:29:54.338Z,8.00
2019-03-06T02:32:23.459Z,8.00
2019-03-06T02:34:52.637Z,8.00
2019-03-06T02:37:21.840Z,8.00
2019-03-06T02:39:52.652Z,8.00
2019-03-06T02:42:21.808Z,8.00
2019-03-06T02:44:56.391Z,8.10
2019-03-06T02:47:25.842Z,8.10
2019-03-06T02:49:55.032Z,8.10
2019-03-06T02:52:26.178Z,8.10
2019-03-06T02:54:55.580Z,8.10
2019-03-06T02:57:25.543Z,8.10
2019-03-06T03:00:03.852Z,8.10
2019-03-06T03:02:51.729Z,8.10
2019-03-06T03:05:41.385Z,8.20
2019-03-06T03:08:11.896Z,8.20
2019-03-06T03:10:43.016Z,8.20
2019-03-06T03:13:13.331Z,8.20
2019-03-06T03:15:42.518Z,8.20
2019-03-06T03:18:11.777Z,8.20
2019-03-06T03:20:40.974Z,8.30
2019-03-06T03:23:10.285Z,8.20
2019-03-06T03:25:40.086Z,8.30
2019-03-06T03:28:11.665Z,8.30
2019-03-06T03:30:43.231Z,8.20
2019-03-06T03:33:12.938Z,8.30
2019-03-06T03:35:42.348Z,8.30
2019-03-06T03:38:11.862Z,8.30
2019-03-06T03:40:41.343Z,8.30
2019-03-06T03:43:12.668Z,8.30
2019-03-06T03:45:41.776Z,8.30
2019-03-06T03:48:11.001Z,8.30
2019-03-06T03:50:40.452Z,8.30
2019-03-06T03:53:09.535Z,8.30
2019-03-06T03:55:39.731Z,8.30
2019-03-06T03:58:11.571Z,8.30
2019-03-06T04:00:41.022Z,8.30
2019-03-06T04:03:10.278Z,8.30
2019-03-06T04:05:39.975Z,8.30
2019-03-06T04:08:09.132Z,8.30
2019-03-06T04:10:38.240Z,8.30
2019-03-06T04:13:07.514Z,8.30
2019-03-06T04:15:36.826Z,8.30
2019-03-06T04:18:05.995Z,8.40
2019-03-06T04:20:35.146Z,8.40
2019-03-06T04:23:04.368Z,8.40
2019-03-06T04:25:33.990Z,8.40
2019-03-06T04:28:03.105Z,8.40
2019-03-06T04:30:32.310Z,8.40
2019-03-06T04:33:01.503Z,8.40
2019-03-06T04:35:30.692Z,8.40
2019-03-06T04:38:00.112Z,8.40
2019-03-06T04:40:29.221Z,8.50
2019-03-06T04:42:58.397Z,8.40
2019-03-06T04:45:27.555Z,8.50
2019-03-06T04:47:56.715Z,8.40
2019-03-06T04:50:26.497Z,8.40
2019-03-06T04:52:55.643Z,8.40
2019-03-06T04:55:24.787Z,8.50
2019-03-06T04:57:53.907Z,8.40
2019-03-06T05:00:23.001Z,8.40
2019-03-06T05:02:53.391Z,8.50
2019-03-06T05:05:22.433Z,8.50
2019-03-06T05:07:51.605Z,8.40
2019-03-06T05:10:20.734Z,8.40
2019-03-06T05:12:49.835Z,8.50
2019-03-06T05:15:20.146Z,8.50
2019-03-06T05:17:56.113Z,8.40
2019-03-06T05:20:27.335Z,8.40
2019-03-06T05:22:56.532Z,8.50
2019-03-06T05:25:26.059Z,8.50
2019-03-06T05:27:55.160Z,8.40
2019-03-06T05:30:25.704Z,8.40
2019-03-06T05:32:55.112Z,8.50
2019-03-06T05:36:01.540Z,8.40
2019-03-06T05:38:35.474Z,8.40
2019-03-06T05:41:06.608Z,8.30
2019-03-06T05:43:35.794Z,8.30
2019-03-06T05:46:08.389Z,8.20
2019-03-06T05:48:39.534Z,8.20
2019-03-06T05:51:08.641Z,8.20
2019-03-06T05:53:37.824Z,8.10
2019-03-06T05:56:09.084Z,8.20
2019-03-06T05:58:38.093Z,8.20
2019-03-06T06:01:07.235Z,8.20
2019-03-06T06:03:37.396Z,8.30
2019-03-06T06:06:06.605Z,8.40
2019-03-06T06:08:37.096Z,8.50
2019-03-06T06:11:06.278Z,8.50
2019-03-06T06:13:35.405Z,8.50
2019-03-06T06:16:04.529Z,8.60
2019-03-06T06:18:33.552Z,8.60
2019-03-06T06:21:40.308Z,8.60
2019-03-06T06:24:15.598Z,8.60
2019-03-06T06:26:44.742Z,8.50
2019-03-06T06:29:13.891Z,8.50
2019-03-06T06:31:43.000Z,8.60
2019-03-06T06:34:12.888Z,8.60
2019-03-06T06:36:42.488Z,8.60
2019-03-06T06:39:11.616Z,8.60
2019-03-06T06:41:40.699Z,8.60
2019-03-06T06:44:09.932Z,8.70
2019-03-06T06:46:39.124Z,8.70
2019-03-06T06:49:08.292Z,8.70
2019-03-06T06:52:30.969Z,8.70
2019-03-06T06:55:28.142Z,8.70
2019-03-06T06:58:37.655Z,8.80
2019-03-06T07:02:14.581Z,8.80
2019-03-06T07:05:23.044Z,8.80
2019-03-06T07:08:06.979Z,8.90
2019-03-06T07:11:01.331Z,9.00
2019-03-06T07:13:43.213Z,9.00
2019-03-06T07:16:49.726Z,9.00
2019-03-06T07:19:26.945Z,9.00
2019-03-06T07:22:00.634Z,9.10
2019-03-06T07:24:48.298Z,9.10
2019-03-06T07:27:26.401Z,9.10
2019-03-06T07:30:05.105Z,9.20
2019-03-06T07:32:42.271Z,9.20
2019-03-06T07:36:12.573Z,9.20
2019-03-06T07:38:41.708Z,9.10
2019-03-06T07:41:48.252Z,9.20
2019-03-06T07:44:42.532Z,9.20
2019-03-06T07:47:33.537Z,9.10
2019-03-06T07:50:13.156Z,9.10
2019-03-06T07:53:04.560Z,9.10
2019-03-06T07:55:50.502Z,9.10
2019-03-06T07:58:53.940Z,9.10
2019-03-06T08:01:26.274Z,9.20
2019-03-06T08:04:12.735Z,9.30
2019-03-06T08:06:47.973Z,9.30
2019-03-06T08:09:19.709Z,9.40
2019-03-06T08:12:06.967Z,9.40
2019-03-06T08:14:54.630Z,9.50
2019-03-06T08:17:42.815Z,9.50
2019-03-06T08:20:31.128Z,9.50
2019-03-06T08:23:16.316Z,9.40
2019-03-06T08:25:44.673Z,9.30
2019-03-06T08:28:14.343Z,9.30
2019-03-06T08:30:53.543Z,9.20
2019-03-06T08:33:22.963Z,9.20
2019-03-06T08:35:52.141Z,9.20
2019-03-06T08:38:21.322Z,9.10
2019-03-06T08:40:52.621Z,9.10
2019-03-06T08:43:24.181Z,9.10
2019-03-06T08:46:18.666Z,9.20
2019-03-06T08:48:57.004Z,9.20
2019-03-06T08:51:52.044Z,9.10
2019-03-06T08:54:44.142Z,9.10
2019-03-06T08:57:25.054Z,9.10
2019-03-06T09:00:26.577Z,9.10
2019-03-06T09:03:29.772Z,9.00
2019-03-06T09:06:09.141Z,9.10
2019-03-06T09:08:57.520Z,9.10
2019-03-06T09:11:45.872Z,9.10
2019-03-06T09:14:32.460Z,9.20
2019-03-06T09:17:20.827Z,9.20
2019-03-06T09:20:04.696Z,9.20
2019-03-06T09:22:51.683Z,9.20
2019-03-06T09:25:42.969Z,9.20
2019-03-06T09:28:40.195Z,9.30
2019-03-06T09:31:16.753Z,9.30
2019-03-06T09:34:13.948Z,9.40
2019-03-06T09:37:17.779Z,9.40
2019-03-06T09:39:57.760Z,9.40
2019-03-06T09:42:41.017Z,9.40
2019-03-06T09:45:24.322Z,9.40
2019-03-06T09:48:15.575Z,9.30
2019-03-06T09:50:57.682Z,9.30
2019-03-06T09:53:41.651Z,9.30
2019-03-06T09:56:33.936Z,9.40
2019-03-06T09:59:31.476Z,9.40
2019-03-06T10:02:25.678Z,9.50
2019-03-06T10:05:17.428Z,9.60
2019-03-06T10:07:55.085Z,9.70
2019-03-06T10:10:57.239Z,9.70
2019-03-06T10:13:31.618Z,9.80
2019-03-06T10:16:23.072Z,9.80
2019-03-06T10:19:09.202Z,9.90
2019-03-06T10:21:38.625Z,10.00
2019-03-06T10:24:08.121Z,10.00
2019-03-06T10:26:37.234Z,10.10
2019-03-06T10:29:06.890Z,10.30
2019-03-06T10:31:36.087Z,10.40
2019-03-06T10:34:06.938Z,10.40
2019-03-06T10:36:36.546Z,10.30
2019-03-06T10:39:08.859Z,10.30
2019-03-06T10:41:38.039Z,10.30
2019-03-06T10:44:07.275Z,10.20
2019-03-06T10:46:36.521Z,10.20
2019-03-06T10:49:05.761Z,10.10
2019-03-06T10:51:35.516Z,10.10
2019-03-06T10:54:05.408Z,10.10
2019-03-06T10:56:34.629Z,10.00
2019-03-06T10:59:03.874Z,9.90
2019-03-06T11:01:33.078Z,9.90
2019-03-06T11:04:19.472Z,9.90
2019-03-06T11:06:48.852Z,9.80
2019-03-06T11:09:18.139Z,9.80
2019-03-06T11:11:50.208Z,9.80
2019-03-06T11:14:19.386Z,9.90
2019-03-06T11:16:48.882Z,9.90
2019-03-06T11:19:18.662Z,10.00
2019-03-06T11:21:53.338Z,10.00
2019-03-06T11:24:25.608Z,10.00
2019-03-06T11:26:54.965Z,10.00
2019-03-06T11:29:24.639Z,10.00
2019-03-06T11:31:54.724Z,10.00
2019-03-06T11:34:26.181Z,10.00
2019-03-06T11:36:55.385Z,9.90
2019-03-06T11:39:24.809Z,9.90
2019-03-06T11:41:56.395Z,9.90
2019-03-06T11:44:25.575Z,9.90
2019-03-06T11:46:54.833Z,9.80
2019-03-06T11:49:24.063Z,9.80
2019-03-06T11:51:53.347Z,9.80
2019-03-06T11:54:22.580Z,9.80
2019-03-06T11:56:51.758Z,9.80
2019-03-06T11:59:21.093Z,9.90
2019-03-06T12:01:51.530Z,9.90
2019-03-06T12:04:20.766Z,9.90
2019-03-06T12:06:49.956Z,10.00
2019-03-06T12:09:31.285Z,10.00
2019-03-06T12:12:03.542Z,10.00
2019-03-06T12:14:34.378Z,9.90
2019-03-06T12:17:03.626Z,9.90
2019-03-06T12:19:33.042Z,9.90
2019-03-06T12:22:03.628Z,9.90
2019-03-06T12:24:32.820Z,9.90
2019-03-06T12:27:01.924Z,9.90
2019-03-06T12:29:31.688Z,9.90
2019-03-06T12:32:00.928Z,9.90
2019-03-06T12:34:30.223Z,9.90
2019-03-06T12:36:59.327Z,9.90
2019-03-06T12:39:28.439Z,9.90
2019-03-06T12:41:58.912Z,9.90
2019-03-06T12:44:28.259Z,9.90
2019-03-06T12:46:58.647Z,10.00
2019-03-06T12:49:29.005Z,10.00
2019-03-06T12:51:58.399Z,10.00
2019-03-06T12:54:27.632Z,10.00
2019-03-06T12:56:57.483Z,10.00
2019-03-06T12:59:26.922Z,10.00
2019-03-06T13:01:56.391Z,10.00
2019-03-06T13:04:25.585Z,10.10
2019-03-06T13:06:54.789Z,10.10
2019-03-06T13:09:23.994Z,10.10
2019-03-06T13:11:53.188Z,10.10
2019-03-06T13:14:24.026Z,10.10
2019-03-06T13:16:53.396Z,10.10
2019-03-06T13:19:24.038Z,10.10
2019-03-06T13:21:53.192Z,10.10
2019-03-06T13:24:22.428Z,10.10
2019-03-06T13:26:51.605Z,10.20
2019-03-06T13:29:21.166Z,10.20
2019-03-06T13:31:50.439Z,10.30
2019-03-06T13:34:38.480Z,10.30
2019-03-06T13:37:07.672Z,10.20
2019-03-06T13:39:37.054Z,10.20
2019-03-06T13:42:06.334Z,10.20
2019-03-06T13:44:35.562Z,10.20
2019-03-06T13:47:04.796Z,10.20
2019-03-06T13:49:33.993Z,10.10
2019-03-06T13:52:03.436Z,10.10
2019-03-06T13:54:32.891Z,10.10
2019-03-06T13:57:02.137Z,10.10
2019-03-06T13:59:33.971Z,10.10
2019-03-06T14:02:03.290Z,10.10
2019-03-06T14:04:32.556Z,10.10
2019-03-06T14:07:02.059Z,10.10
2019-03-06T14:09:31.275Z,10.00
2019-03-06T14:12:00.443Z,10.00
2019-03-06T14:14:29.625Z,10.00
2019-03-06T14:16:58.975Z,10.00
2019-03-06T14:19:29.472Z,10.00
2019-03-06T14:22:00.056Z,10.10
2019-03-06T14:24:29.638Z,10.10
2019-03-06T14:27:09.128Z,10.10
2019-03-06T14:29:38.797Z,10.10
2019-03-06T14:32:14.597Z,10.20
2019-03-06T14:34:41.749Z,10.20
2019-03-06T14:37:13.576Z,10.30
2019-03-06T14:39:44.488Z,10.20
2019-03-06T14:42:15.666Z,10.30
2019-03-06T14:44:45.050Z,10.30
2019-03-06T14:47:16.492Z,10.30
2019-03-06T14:49:50.851Z,10.30
2019-03-06T14:52:22.598Z,10.30
2019-03-06T14:54:52.031Z,10.30
2019-03-06T14:57:21.283Z,10.30
2019-03-06T14:59:50.784Z,10.30
2019-03-06T15:02:20.037Z,10.30
2019-03-06T15:04:49.274Z,10.30
2019-03-06T15:07:20.130Z,10.30
2019-03-06T15:09:52.368Z,10.40
2019-03-06T15:12:25.302Z,10.30
2019-03-06T15:14:54.484Z,10.30
2019-03-06T15:17:23.918Z,10.30
2019-03-06T15:19:56.379Z,10.20
2019-03-06T15:22:27.004Z,10.30
2019-03-06T15:24:57.757Z,10.20
2019-03-06T15:27:26.969Z,10.20
2019-03-06T15:29:56.235Z,10.20
2019-03-06T15:32:25.447Z,10.30
2019-03-06T15:34:56.228Z,10.30
2019-03-06T15:37:26.419Z,10.20
2019-03-06T15:39:56.131Z,10.20
2019-03-06T15:42:26.979Z,10.20
2019-03-06T15:44:56.109Z,10.20
2019-03-06T15:47:33.450Z,10.20
2019-03-06T15:49:56.309Z,10.20
2019-03-06T15:52:25.597Z,10.20
2019-03-06T15:54:54.791Z,10.20
2019-03-06T15:57:24.040Z,10.20
2019-03-06T15:59:53.244Z,10.30
2019-03-06T16:02:22.420Z,10.30
2019-03-06T16:04:51.609Z,10.20
2019-03-06T16:07:21.020Z,10.20
2019-03-06T16:09:50.300Z,10.20
2019-03-06T16:12:19.673Z,10.20
2019-03-06T16:14:50.797Z,10.10
2019-03-06T16:17:21.285Z,10.10
2019-03-06T16:19:50.865Z,10.10
2019-03-06T16:22:20.042Z,10.10
2019-03-06T16:24:49.219Z,10.10
2019-03-06T16:27:18.345Z,10.00
2019-03-06T16:29:47.514Z,10.00
2019-03-06T16:32:18.115Z,10.00
2019-03-06T16:34:47.551Z,10.00
2019-03-06T16:37:16.776Z,10.00
2019-03-06T16:39:45.878Z,10.00
2019-03-06T16:42:15.886Z,10.00
2019-03-06T16:44:46.302Z,10.00
2019-03-06T16:47:16.215Z,10.00
2019-03-06T16:49:48.224Z,10.00
2019-03-06T16:52:17.539Z,10.00
2019-03-06T16:54:49.038Z,9.90
2019-03-06T16:57:23.809Z,9.90
2019-03-06T16:59:52.824Z,9.90
2019-03-06T17:02:23.764Z,9.90
2019-03-06T17:04:53.044Z,9.90
2019-03-06T17:07:22.223Z,9.90
2019-03-06T17:09:51.417Z,9.90
2019-03-06T17:12:20.639Z,9.90
2019-03-06T17:14:50.213Z,9.90
2019-03-06T17:17:19.627Z,9.90
2019-03-06T17:19:51.675Z,9.90
2019-03-06T17:22:21.215Z,9.90
2019-03-06T17:24:50.398Z,9.90
2019-03-06T17:27:19.539Z,9.90
2019-03-06T17:29:48.924Z,9.90
2019-03-06T17:32:19.041Z,9.90
2019-03-06T17:34:48.544Z,9.80
2019-03-06T17:37:19.619Z,9.90
2019-03-06T17:39:50.377Z,9.80
2019-03-06T17:42:20.639Z,9.80
2019-03-06T17:44:50.081Z,9.80
2019-03-06T17:47:19.326Z,9.90
2019-03-06T17:49:48.662Z,9.90
2019-03-06T17:52:17.896Z,9.90
2019-03-06T17:54:47.272Z,10.00
2019-03-06T17:57:16.507Z,10.00
2019-03-06T17:59:46.058Z,10.00
2019-03-06T18:02:15.355Z,10.10
2019-03-06T18:04:44.754Z,10.10
2019-03-06T18:07:13.976Z,10.10
2019-03-06T18:09:43.440Z,10.10
2019-03-06T18:12:12.764Z,10.10
2019-03-06T18:14:41.970Z,10.10
2019-03-06T18:17:11.178Z,10.10
2019-03-06T18:19:40.528Z,10.10
2019-03-06T18:22:09.825Z,10.10
2019-03-06T18:24:39.316Z,10.20
2019-03-06T18:27:08.719Z,10.20
2019-03-06T18:29:37.942Z,10.10
2019-03-06T18:32:07.175Z,10.20
2019-03-06T18:34:36.417Z,10.20
2019-03-06T18:37:05.697Z,10.10
2019-03-06T18:39:35.328Z,10.10
2019-03-06T18:42:04.640Z,10.10
2019-03-06T18:44:33.866Z,10.10
2019-03-06T18:47:03.097Z,10.10
2019-03-06T18:49:32.421Z,10.10
2019-03-06T18:52:01.733Z,10.10
2019-03-06T18:54:31.349Z,10.10
2019-03-06T18:57:00.594Z,10.10
2019-03-06T18:59:29.815Z,10.10
2019-03-06T19:01:59.292Z,10.10
2019-03-06T19:04:31.662Z,10.10
2019-03-06T19:07:01.687Z,10.10
2019-03-06T19:09:30.869Z,10.10
2019-03-06T19:12:00.130Z,10.10
2019-03-06T19:14:29.550Z,10.10
2019-03-06T19:16:58.725Z,10.10
2019-03-06T19:19:27.947Z,10.10
2019-03-06T19:21:57.154Z,10.10
2019-03-06T19:24:26.512Z,10.00
2019-03-06T19:26:56.128Z,10.00
2019-03-06T19:29:25.413Z,10.00
2019-03-06T19:31:54.725Z,10.00
2019-03-06T19:34:24.018Z,10.00
2019-03-06T19:36:55.709Z,10.00
2019-03-06T19:39:24.859Z,10.00
2019-03-06T19:41:54.131Z,10.00
2019-03-06T19:44:23.300Z,10.00
2019-03-06T19:46:52.496Z,10.00
2019-03-06T19:49:22.225Z,10.00
2019-03-06T19:51:51.918Z,10.00
2019-03-06T19:54:21.387Z,10.00
2019-03-06T19:56:50.584Z,10.00
2019-03-06T19:59:19.796Z,10.00
2019-03-06T20:01:48.980Z,9.90
2019-03-06T20:04:18.142Z,9.90
2019-03-06T20:06:47.407Z,9.90
2019-03-06T20:09:27.575Z,9.90
2019-03-06T20:11:56.776Z,9.90
2019-03-06T20:14:25.980Z,9.90
2019-03-06T20:16:55.199Z,9.90
2019-03-06T20:19:24.438Z,9.90
2019-03-06T20:21:56.261Z,9.90
2019-03-06T20:24:25.711Z,9.90
2019-03-06T20:26:55.089Z,9.90
2019-03-06T20:29:24.286Z,9.90
2019-03-06T20:31:53.541Z,9.90
2019-03-06T20:34:22.738Z,9.90
2019-03-06T20:36:52.141Z,9.90
2019-03-06T20:39:21.445Z,9.80
2019-03-06T20:41:50.657Z,9.80
2019-03-06T20:44:19.863Z,9.80
2019-03-06T20:46:49.053Z,9.80
2019-03-06T20:49:18.301Z,9.70
2019-03-06T20:51:47.869Z,9.70
2019-03-06T20:54:17.050Z,9.70
2019-03-06T20:56:46.444Z,9.70
2019-03-06T20:59:15.676Z,9.70
2019-03-06T21:01:47.611Z,9.60
2019-03-06T21:04:16.996Z,9.60
2019-03-06T21:06:51.880Z,9.60
2019-03-06T21:09:25.578Z,9.60
2019-03-06T21:11:55.863Z,9.70
2019-03-06T21:14:25.927Z,9.70
2019-03-06T21:16:55.278Z,9.70
2019-03-06T21:19:24.495Z,9.70
2019-03-06T21:21:53.756Z,9.70
2019-03-06T21:24:23.246Z,9.70
2019-03-06T21:26:52.502Z,9.80
2019-03-06T21:29:21.771Z,9.80
2019-03-06T21:31:51.006Z,9.80
2019-03-06T21:34:20.189Z,9.80
2019-03-06T21:36:49.507Z,9.70
2019-03-06T21:39:23.424Z,9.70
2019-03-06T21:41:52.671Z,9.70
2019-03-06T21:44:21.873Z,9.60
2019-03-06T21:46:51.092Z,9.60
2019-03-06T21:49:20.342Z,9.60
2019-03-06T21:51:49.630Z,9.60
2019-03-06T21:54:19.414Z,9.60
2019-03-06T21:56:48.740Z,9.60
2019-03-06T21:59:18.096Z,9.60
2019-03-06T22:01:47.298Z,9.60
2019-03-06T22:04:16.553Z,9.60
2019-03-06T22:06:45.787Z,9.60
2019-03-06T22:09:15.693Z,9.60
2019-03-06T22:11:47.137Z,9.50
2019-03-06T22:14:16.405Z,9.60
2019-03-06T22:16:45.629Z,9.60
2019-03-06T22:19:14.854Z,9.50
2019-03-06T22:21:44.091Z,9.60
2019-03-06T22:24:13.313Z,9.60
2019-03-06T22:26:42.536Z,9.60
2019-03-06T22:29:12.702Z,9.60
2019-03-06T22:31:42.052Z,9.60
2019-03-06T22:34:11.218Z,9.60
2019-03-06T22:36:40.450Z,9.60
2019-03-06T22:39:10.013Z,9.60
2019-03-06T22:41:39.186Z,9.60
2019-03-06T22:44:08.472Z,9.60
2019-03-06T22:46:37.672Z,9.60
2019-03-06T22:49:06.862Z,9.60
2019-03-06T22:51:36.222Z,9.60
2019-03-06T22:54:05.414Z,9.60
2019-03-06T22:56:34.714Z,9.60
2019-03-06T22:59:06.371Z,9.60
2019-03-06T23:01:37.693Z,9.60
2019-03-06T23:04:07.396Z,9.60
2019-03-06T23:06:36.625Z,9.60
2019-03-06T23:09:09.329Z,9.60
2019-03-06T23:11:38.919Z,9.80
2019-03-06T23:14:08.101Z,9.80
2019-03-06T23:16:37.581Z,9.80
2019-03-06T23:19:06.945Z,9.90
2019-03-06T23:21:36.185Z,9.90
2019-03-06T23:24:05.389Z,9.90
2019-03-06T23:26:42.522Z,9.90
2019-03-06T23:29:05.457Z,9.90
2019-03-06T23:31:34.715Z,10.00
2019-03-06T23:34:03.942Z,10.00
2019-03-06T23:36:33.192Z,10.00
2019-03-06T23:39:02.534Z,10.00
2019-03-06T23:41:31.722Z,10.00
2019-03-06T23:44:01.019Z,10.00
2019-03-06T23:46:39.130Z,9.90
2019-03-06T23:49:13.296Z,10.00
2019-03-06T23:52:10.104Z,10.00
2019-03-06T23:54:39.433Z,9.90
2019-03-06T23:57:08.666Z,9.80
2019-03-06T23:59:37.994Z,9.80
